sensor_id;sensor_type;location;lat;lon;timestamp;temperature;humidity
54788;DHT22;59598;48.112;16.280;2022-12-07T00:02:17;5.80;99.90
54788;DHT22;59598;48.112;16.280;2022-12-07T00:04:51;5.80;99.90
54788;DHT22;59598;48.112;16.280;2022-12-07T00:07:25;5.80;99.90
54788;DHT22;59598;48.112;16.280;2022-12-07T00:09:56;5.80;99.90
54788;DHT22;59598;48.112;16.280;2022-12-07T00:12:31;5.80;99.90
54788;DHT22;59598;48.112;16.280;2022-12-07T00:15:09;5.80;99.90
54788;DHT22;59598;48.112;16.280;2022-12-07T00:17:41;5.80;99.90
54788;DHT22;59598;48.112;16.280;2022-12-07T00:20:20;5.80;99.90
54788;DHT22;59598;48.112;16.280;2022-12-07T00:22:55;5.80;99.90
54788;DHT22;59598;48.112;16.280;2022-12-07T00:25:32;5.70;99.90
54788;DHT22;59598;48.112;16.280;2022-12-07T00:28:09;5.70;99.90
54788;DHT22;59598;48.112;16.280;2022-12-07T00:30:41;5.70;99.90
54788;DHT22;59598;48.112;16.280;2022-12-07T00:33:13;5.80;99.90
54788;DHT22;59598;48.112;16.280;2022-12-07T00:35:44;5.80;99.90
54788;DHT22;59598;48.112;16.280;2022-12-07T00:38:35;5.70;99.90
54788;DHT22;59598;48.112;16.280;2022-12-07T00:41:15;5.70;99.90
54788;DHT22;59598;48.112;16.280;2022-12-07T00:43:51;5.70;99.90
54788;DHT22;59598;48.112;16.280;2022-12-07T00:46:30;5.70;99.90
54788;DHT22;59598;48.112;16.280;2022-12-07T00:49:11;5.70;99.90
54788;DHT22;59598;48.112;16.280;2022-12-07T00:51:42;5.70;99.90
54788;DHT22;59598;48.112;16.280;2022-12-07T00:54:17;5.60;99.90
54788;DHT22;59598;48.112;16.280;2022-12-07T00:56:51;5.60;99.90
54788;DHT22;59598;48.112;16.280;2022-12-07T00:59:30;5.60;99.90
54788;DHT22;59598;48.112;16.280;2022-12-07T01:02:14;5.60;99.90
54788;DHT22;59598;48.112;16.280;2022-12-07T01:04:48;5.60;99.90
54788;DHT22;59598;48.112;16.280;2022-12-07T01:07:19;5.60;99.90
54788;DHT22;59598;48.112;16.280;2022-12-07T01:09:52;5.60;99.90
54788;DHT22;59598;48.112;16.280;2022-12-07T01:12:26;5.50;99.90
54788;DHT22;59598;48.112;16.280;2022-12-07T01:15:00;5.50;99.90
54788;DHT22;59598;48.112;16.280;2022-12-07T01:17:33;5.50;99.90
54788;DHT22;59598;48.112;16.280;2022-12-07T01:20:08;5.50;99.90
54788;DHT22;59598;48.112;16.280;2022-12-07T01:22:50;5.50;99.90
54788;DHT22;59598;48.112;16.280;2022-12-07T01:25:32;5.50;99.90
54788;DHT22;59598;48.112;16.280;2022-12-07T01:28:19;5.50;99.90
54788;DHT22;59598;48.112;16.280;2022-12-07T01:31:02;5.50;99.90
54788;DHT22;59598;48.112;16.280;2022-12-07T01:33:36;5.50;99.90
54788;DHT22;59598;48.112;16.280;2022-12-07T01:36:18;5.50;99.90
54788;DHT22;59598;48.112;16.280;2022-12-07T01:39:18;5.50;99.90
54788;DHT22;59598;48.112;16.280;2022-12-07T01:41:54;5.40;99.90
54788;DHT22;59598;48.112;16.280;2022-12-07T01:44:29;5.40;99.90
54788;DHT22;59598;48.112;16.280;2022-12-07T01:47:04;5.40;99.90
54788;DHT22;59598;48.112;16.280;2022-12-07T01:49:48;5.40;99.90
54788;DHT22;59598;48.112;16.280;2022-12-07T01:52:30;5.40;99.90
54788;DHT22;59598;48.112;16.280;2022-12-07T01:55:10;5.40;99.90
54788;DHT22;59598;48.112;16.280;2022-12-07T01:57:48;5.40;99.90
54788;DHT22;59598;48.112;16.280;2022-12-07T02:00:23;5.40;99.90
54788;DHT22;59598;48.112;16.280;2022-12-07T02:03:08;5.40;99.90
54788;DHT22;59598;48.112;16.280;2022-12-07T02:05:43;5.30;99.90
54788;DHT22;59598;48.112;16.280;2022-12-07T02:08:23;5.30;99.90
54788;DHT22;59598;48.112;16.280;2022-12-07T02:11:03;5.30;99.90
54788;DHT22;59598;48.112;16.280;2022-12-07T02:13:42;5.30;99.90
54788;DHT22;59598;48.112;16.280;2022-12-07T02:29:38;5.20;99.90
54788;DHT22;59598;48.112;16.280;2022-12-07T02:32:18;5.30;99.90
54788;DHT22;59598;48.112;16.280;2022-12-07T02:35:16;5.30;99.90
54788;DHT22;59598;48.112;16.280;2022-12-07T02:41:15;5.30;99.90
54788;DHT22;59598;48.112;16.280;2022-12-07T02:43:56;5.30;99.90
54788;DHT22;59598;48.112;16.280;2022-12-07T02:46:40;5.40;99.90
54788;DHT22;59598;48.112;16.280;2022-12-07T02:49:16;5.30;99.90
54788;DHT22;59598;48.112;16.280;2022-12-07T02:51:50;5.30;99.90
54788;DHT22;59598;48.112;16.280;2022-12-07T02:54:25;5.30;99.90
54788;DHT22;59598;48.112;16.280;2022-12-07T02:57:38;5.30;99.90
54788;DHT22;59598;48.112;16.280;2022-12-07T03:01:04;5.30;99.90
54788;DHT22;59598;48.112;16.280;2022-12-07T03:03:51;5.30;99.90
54788;DHT22;59598;48.112;16.280;2022-12-07T03:06:40;5.30;99.90
54788;DHT22;59598;48.112;16.280;2022-12-07T03:09:20;5.30;99.90
54788;DHT22;59598;48.112;16.280;2022-12-07T03:12:21;5.30;99.90
54788;DHT22;59598;48.112;16.280;2022-12-07T03:15:35;5.20;99.90
54788;DHT22;59598;48.112;16.280;2022-12-07T03:18:16;5.20;99.90
54788;DHT22;59598;48.112;16.280;2022-12-07T03:20:58;5.20;99.90
54788;DHT22;59598;48.112;16.280;2022-12-07T03:23:37;5.20;99.90
54788;DHT22;59598;48.112;16.280;2022-12-07T03:26:19;5.30;99.90
54788;DHT22;59598;48.112;16.280;2022-12-07T03:28:55;5.30;99.90
54788;DHT22;59598;48.112;16.280;2022-12-07T03:31:35;5.20;99.90
54788;DHT22;59598;48.112;16.280;2022-12-07T03:34:18;5.20;99.90
54788;DHT22;59598;48.112;16.280;2022-12-07T03:37:01;5.20;99.90
54788;DHT22;59598;48.112;16.280;2022-12-07T03:39:46;5.20;99.90
54788;DHT22;59598;48.112;16.280;2022-12-07T03:42:50;5.20;99.90
54788;DHT22;59598;48.112;16.280;2022-12-07T03:45:42;5.20;99.90
54788;DHT22;59598;48.112;16.280;2022-12-07T03:48:27;5.20;99.90
54788;DHT22;59598;48.112;16.280;2022-12-07T03:51:14;5.20;99.90
54788;DHT22;59598;48.112;16.280;2022-12-07T03:56:58;5.20;99.90
54788;DHT22;59598;48.112;16.280;2022-12-07T03:59:34;5.20;99.90
54788;DHT22;59598;48.112;16.280;2022-12-07T04:02:06;5.20;99.90
54788;DHT22;59598;48.112;16.280;2022-12-07T04:04:44;5.20;99.90
54788;DHT22;59598;48.112;16.280;2022-12-07T04:07:20;5.20;99.90
54788;DHT22;59598;48.112;16.280;2022-12-07T04:09:53;5.20;99.90
54788;DHT22;59598;48.112;16.280;2022-12-07T04:12:25;5.20;99.90
54788;DHT22;59598;48.112;16.280;2022-12-07T04:14:57;5.20;99.90
54788;DHT22;59598;48.112;16.280;2022-12-07T04:17:31;5.20;99.90
54788;DHT22;59598;48.112;16.280;2022-12-07T04:20:07;5.20;99.90
54788;DHT22;59598;48.112;16.280;2022-12-07T04:22:45;5.30;99.90
54788;DHT22;59598;48.112;16.280;2022-12-07T04:25:19;5.20;99.90
54788;DHT22;59598;48.112;16.280;2022-12-07T04:27:52;5.30;99.90
54788;DHT22;59598;48.112;16.280;2022-12-07T04:30:34;5.20;99.90
54788;DHT22;59598;48.112;16.280;2022-12-07T04:33:05;5.30;99.90
54788;DHT22;59598;48.112;16.280;2022-12-07T04:35:39;5.30;99.90
54788;DHT22;59598;48.112;16.280;2022-12-07T04:38:15;5.30;99.90
54788;DHT22;59598;48.112;16.280;2022-12-07T04:40:50;5.30;99.90
54788;DHT22;59598;48.112;16.280;2022-12-07T04:43:24;5.20;99.90
54788;DHT22;59598;48.112;16.280;2022-12-07T04:46:00;5.30;99.90
54788;DHT22;59598;48.112;16.280;2022-12-07T04:48:34;5.30;99.90
54788;DHT22;59598;48.112;16.280;2022-12-07T04:51:06;5.30;99.90
54788;DHT22;59598;48.112;16.280;2022-12-07T04:53:40;5.30;99.90
54788;DHT22;59598;48.112;16.280;2022-12-07T04:56:12;5.20;99.90
54788;DHT22;59598;48.112;16.280;2022-12-07T04:58:52;5.30;99.90
54788;DHT22;59598;48.112;16.280;2022-12-07T05:01:25;5.30;99.90
54788;DHT22;59598;48.112;16.280;2022-12-07T05:03:57;5.20;99.90
54788;DHT22;59598;48.112;16.280;2022-12-07T05:06:32;5.20;99.90
54788;DHT22;59598;48.112;16.280;2022-12-07T05:09:07;5.20;99.90
54788;DHT22;59598;48.112;16.280;2022-12-07T05:11:38;5.20;99.90
54788;DHT22;59598;48.112;16.280;2022-12-07T05:14:17;5.20;99.90
54788;DHT22;59598;48.112;16.280;2022-12-07T05:16:54;5.20;99.90
54788;DHT22;59598;48.112;16.280;2022-12-07T05:19:29;5.20;99.90
54788;DHT22;59598;48.112;16.280;2022-12-07T05:22:03;5.20;99.90
54788;DHT22;59598;48.112;16.280;2022-12-07T05:24:43;5.20;99.90
54788;DHT22;59598;48.112;16.280;2022-12-07T05:27:17;5.20;99.90
54788;DHT22;59598;48.112;16.280;2022-12-07T05:29:51;5.20;99.90
54788;DHT22;59598;48.112;16.280;2022-12-07T05:32:23;5.20;99.90
54788;DHT22;59598;48.112;16.280;2022-12-07T05:34:58;5.20;99.90
54788;DHT22;59598;48.112;16.280;2022-12-07T05:37:31;5.10;99.90
54788;DHT22;59598;48.112;16.280;2022-12-07T05:40:06;5.10;99.90
54788;DHT22;59598;48.112;16.280;2022-12-07T05:42:40;5.20;99.90
54788;DHT22;59598;48.112;16.280;2022-12-07T05:45:12;5.20;99.90
54788;DHT22;59598;48.112;16.280;2022-12-07T05:47:47;5.20;99.90
54788;DHT22;59598;48.112;16.280;2022-12-07T05:50:19;5.20;99.90
54788;DHT22;59598;48.112;16.280;2022-12-07T05:52:51;5.20;99.90
54788;DHT22;59598;48.112;16.280;2022-12-07T05:55:27;5.20;99.90
54788;DHT22;59598;48.112;16.280;2022-12-07T05:58:03;5.30;99.90
54788;DHT22;59598;48.112;16.280;2022-12-07T06:00:56;5.20;99.90
54788;DHT22;59598;48.112;16.280;2022-12-07T06:03:32;5.20;99.90
54788;DHT22;59598;48.112;16.280;2022-12-07T06:06:06;5.20;99.90
54788;DHT22;59598;48.112;16.280;2022-12-07T06:08:40;5.30;99.90
54788;DHT22;59598;48.112;16.280;2022-12-07T06:11:12;5.30;99.90
54788;DHT22;59598;48.112;16.280;2022-12-07T06:14:02;5.30;99.90
54788;DHT22;59598;48.112;16.280;2022-12-07T06:16:33;5.30;99.90
54788;DHT22;59598;48.112;16.280;2022-12-07T06:19:07;5.30;99.90
54788;DHT22;59598;48.112;16.280;2022-12-07T06:21:45;5.30;99.90
54788;DHT22;59598;48.112;16.280;2022-12-07T06:24:18;5.40;99.90
54788;DHT22;59598;48.112;16.280;2022-12-07T06:26:52;5.40;99.90
54788;DHT22;59598;48.112;16.280;2022-12-07T06:29:28;5.40;99.90
54788;DHT22;59598;48.112;16.280;2022-12-07T06:32:00;5.40;99.90
54788;DHT22;59598;48.112;16.280;2022-12-07T06:34:31;5.40;99.90
54788;DHT22;59598;48.112;16.280;2022-12-07T06:37:06;5.40;99.90
54788;DHT22;59598;48.112;16.280;2022-12-07T06:39:39;5.40;99.90
54788;DHT22;59598;48.112;16.280;2022-12-07T06:42:22;5.40;99.90
54788;DHT22;59598;48.112;16.280;2022-12-07T06:44:58;5.40;99.90
54788;DHT22;59598;48.112;16.280;2022-12-07T06:47:33;5.40;99.90
54788;DHT22;59598;48.112;16.280;2022-12-07T06:50:08;5.40;99.90
54788;DHT22;59598;48.112;16.280;2022-12-07T06:52:42;5.40;99.90
54788;DHT22;59598;48.112;16.280;2022-12-07T06:55:14;5.30;99.90
54788;DHT22;59598;48.112;16.280;2022-12-07T06:57:47;5.30;99.90
54788;DHT22;59598;48.112;16.280;2022-12-07T07:00:19;5.30;99.90
54788;DHT22;59598;48.112;16.280;2022-12-07T07:02:53;5.30;99.90
54788;DHT22;59598;48.112;16.280;2022-12-07T07:05:28;5.30;99.90
54788;DHT22;59598;48.112;16.280;2022-12-07T07:08:00;5.30;99.90
54788;DHT22;59598;48.112;16.280;2022-12-07T07:10:32;5.40;99.90
54788;DHT22;59598;48.112;16.280;2022-12-07T07:13:04;5.40;99.90
54788;DHT22;59598;48.112;16.280;2022-12-07T07:15:38;5.50;99.90
54788;DHT22;59598;48.112;16.280;2022-12-07T07:18:10;5.50;99.90
54788;DHT22;59598;48.112;16.280;2022-12-07T07:20:44;5.50;99.90
54788;DHT22;59598;48.112;16.280;2022-12-07T07:23:18;5.50;99.90
54788;DHT22;59598;48.112;16.280;2022-12-07T07:25:51;5.50;99.90
54788;DHT22;59598;48.112;16.280;2022-12-07T07:28:22;5.40;99.90
54788;DHT22;59598;48.112;16.280;2022-12-07T07:30:56;5.50;99.90
54788;DHT22;59598;48.112;16.280;2022-12-07T07:33:39;5.50;99.90
54788;DHT22;59598;48.112;16.280;2022-12-07T07:36:13;5.50;99.90
54788;DHT22;59598;48.112;16.280;2022-12-07T07:38:46;5.60;99.90
54788;DHT22;59598;48.112;16.280;2022-12-07T07:41:18;5.60;99.90
54788;DHT22;59598;48.112;16.280;2022-12-07T07:43:55;5.60;99.90
54788;DHT22;59598;48.112;16.280;2022-12-07T07:46:29;5.70;99.90
54788;DHT22;59598;48.112;16.280;2022-12-07T07:49:02;5.70;99.90
54788;DHT22;59598;48.112;16.280;2022-12-07T07:51:36;5.70;99.90
54788;DHT22;59598;48.112;16.280;2022-12-07T07:54:13;5.70;99.90
54788;DHT22;59598;48.112;16.280;2022-12-07T07:56:44;5.70;99.90
54788;DHT22;59598;48.112;16.280;2022-12-07T07:59:16;5.80;99.90
54788;DHT22;59598;48.112;16.280;2022-12-07T08:01:53;5.80;99.90
54788;DHT22;59598;48.112;16.280;2022-12-07T08:04:27;5.90;99.90
54788;DHT22;59598;48.112;16.280;2022-12-07T08:07:00;6.00;99.90
54788;DHT22;59598;48.112;16.280;2022-12-07T08:09:40;6.00;99.90
54788;DHT22;59598;48.112;16.280;2022-12-07T08:12:14;5.80;99.90
54788;DHT22;59598;48.112;16.280;2022-12-07T08:14:46;5.80;99.90
54788;DHT22;59598;48.112;16.280;2022-12-07T08:17:17;5.90;99.90
54788;DHT22;59598;48.112;16.280;2022-12-07T08:19:50;6.00;99.90
54788;DHT22;59598;48.112;16.280;2022-12-07T08:22:29;6.00;99.90
54788;DHT22;59598;48.112;16.280;2022-12-07T08:25:10;6.10;99.90
54788;DHT22;59598;48.112;16.280;2022-12-07T08:27:48;6.10;99.90
54788;DHT22;59598;48.112;16.280;2022-12-07T08:30:21;6.10;99.90
54788;DHT22;59598;48.112;16.280;2022-12-07T08:32:53;6.00;99.90
54788;DHT22;59598;48.112;16.280;2022-12-07T08:35:28;6.00;99.90
54788;DHT22;59598;48.112;16.280;2022-12-07T08:38:02;6.00;99.90
54788;DHT22;59598;48.112;16.280;2022-12-07T08:40:34;6.00;99.90
54788;DHT22;59598;48.112;16.280;2022-12-07T08:43:07;6.00;99.90
54788;DHT22;59598;48.112;16.280;2022-12-07T08:45:44;6.00;99.90
54788;DHT22;59598;48.112;16.280;2022-12-07T08:48:15;5.90;99.90
54788;DHT22;59598;48.112;16.280;2022-12-07T08:50:48;6.00;99.90
54788;DHT22;59598;48.112;16.280;2022-12-07T08:53:20;6.10;99.90
54788;DHT22;59598;48.112;16.280;2022-12-07T08:55:56;6.20;99.90
54788;DHT22;59598;48.112;16.280;2022-12-07T08:58:34;6.00;99.90
54788;DHT22;59598;48.112;16.280;2022-12-07T09:01:15;6.00;99.90
54788;DHT22;59598;48.112;16.280;2022-12-07T09:03:49;6.00;99.90
54788;DHT22;59598;48.112;16.280;2022-12-07T09:06:28;6.00;99.90
54788;DHT22;59598;48.112;16.280;2022-12-07T09:08:59;5.90;99.90
54788;DHT22;59598;48.112;16.280;2022-12-07T09:11:35;5.80;99.90
54788;DHT22;59598;48.112;16.280;2022-12-07T09:14:12;5.90;99.90
54788;DHT22;59598;48.112;16.280;2022-12-07T09:16:44;6.00;99.90
54788;DHT22;59598;48.112;16.280;2022-12-07T09:19:21;5.90;99.90
54788;DHT22;59598;48.112;16.280;2022-12-07T09:21:54;5.90;99.90
54788;DHT22;59598;48.112;16.280;2022-12-07T09:24:26;5.90;99.90
54788;DHT22;59598;48.112;16.280;2022-12-07T09:27:00;5.60;99.90
54788;DHT22;59598;48.112;16.280;2022-12-07T09:29:31;5.50;99.90
54788;DHT22;59598;48.112;16.280;2022-12-07T09:32:05;5.50;99.90
54788;DHT22;59598;48.112;16.280;2022-12-07T09:34:36;5.50;99.90
54788;DHT22;59598;48.112;16.280;2022-12-07T09:37:14;5.40;99.90
54788;DHT22;59598;48.112;16.280;2022-12-07T09:39:51;5.40;99.90
54788;DHT22;59598;48.112;16.280;2022-12-07T09:42:44;5.50;99.90
54788;DHT22;59598;48.112;16.280;2022-12-07T09:45:25;5.60;99.90
54788;DHT22;59598;48.112;16.280;2022-12-07T09:48:02;6.00;99.90
54788;DHT22;59598;48.112;16.280;2022-12-07T09:50:39;6.20;99.90
54788;DHT22;59598;48.112;16.280;2022-12-07T09:53:30;6.30;99.90
54788;DHT22;59598;48.112;16.280;2022-12-07T09:56:11;6.60;99.90
54788;DHT22;59598;48.112;16.280;2022-12-07T09:58:45;6.50;99.90
54788;DHT22;59598;48.112;16.280;2022-12-07T10:01:20;6.50;99.90
54788;DHT22;59598;48.112;16.280;2022-12-07T10:06:52;6.40;99.90
54788;DHT22;59598;48.112;16.280;2022-12-07T10:09:24;6.80;99.90
54788;DHT22;59598;48.112;16.280;2022-12-07T10:14:36;6.90;99.90
54788;DHT22;59598;48.112;16.280;2022-12-07T10:17:36;6.70;99.90
54788;DHT22;59598;48.112;16.280;2022-12-07T10:20:25;6.40;99.90
54788;DHT22;59598;48.112;16.280;2022-12-07T10:23:08;6.60;99.90
54788;DHT22;59598;48.112;16.280;2022-12-07T10:25:46;6.50;99.90
54788;DHT22;59598;48.112;16.280;2022-12-07T10:28:19;6.20;99.90
54788;DHT22;59598;48.112;16.280;2022-12-07T10:33:54;6.20;99.90
54788;DHT22;59598;48.112;16.280;2022-12-07T10:36:36;5.90;99.90
54788;DHT22;59598;48.112;16.280;2022-12-07T10:39:28;5.80;99.90
54788;DHT22;59598;48.112;16.280;2022-12-07T10:42:05;5.70;99.90
54788;DHT22;59598;48.112;16.280;2022-12-07T10:44:50;6.00;99.90
54788;DHT22;59598;48.112;16.280;2022-12-07T10:48:06;5.90;99.90
54788;DHT22;59598;48.112;16.280;2022-12-07T11:06:02;5.80;99.90
54788;DHT22;59598;48.112;16.280;2022-12-07T11:08:53;5.90;99.90
54788;DHT22;59598;48.112;16.280;2022-12-07T11:12:09;5.90;99.90
54788;DHT22;59598;48.112;16.280;2022-12-07T11:14:58;6.60;99.90
54788;DHT22;59598;48.112;16.280;2022-12-07T11:21:13;6.50;99.90
54788;DHT22;59598;48.112;16.280;2022-12-07T11:32:49;7.40;99.90
54788;DHT22;59598;48.112;16.280;2022-12-07T11:38:26;6.80;99.90
54788;DHT22;59598;48.112;16.280;2022-12-07T11:41:09;6.40;99.90
54788;DHT22;59598;48.112;16.280;2022-12-07T11:44:11;6.20;99.90
54788;DHT22;59598;48.112;16.280;2022-12-07T11:47:22;6.20;99.90
54788;DHT22;59598;48.112;16.280;2022-12-07T11:56:14;6.60;99.90
54788;DHT22;59598;48.112;16.280;2022-12-07T11:59:00;6.60;99.90
54788;DHT22;59598;48.112;16.280;2022-12-07T12:01:53;6.20;99.90
54788;DHT22;59598;48.112;16.280;2022-12-07T12:04:58;6.10;99.90
54788;DHT22;59598;48.112;16.280;2022-12-07T12:08:42;6.40;99.90
54788;DHT22;59598;48.112;16.280;2022-12-07T12:21:06;9.20;99.90
54788;DHT22;59598;48.112;16.280;2022-12-07T12:24:15;9.80;99.90
54788;DHT22;59598;48.112;16.280;2022-12-07T12:29:59;9.80;99.90
54788;DHT22;59598;48.112;16.280;2022-12-07T12:32:42;10.10;99.90
54788;DHT22;59598;48.112;16.280;2022-12-07T12:38:34;9.70;99.90
54788;DHT22;59598;48.112;16.280;2022-12-07T12:46:59;10.90;99.90
54788;DHT22;59598;48.112;16.280;2022-12-07T12:49:38;11.20;99.90
54788;DHT22;59598;48.112;16.280;2022-12-07T13:04:29;11.40;99.90
54788;DHT22;59598;48.112;16.280;2022-12-07T13:18:41;9.40;99.90
54788;DHT22;59598;48.112;16.280;2022-12-07T13:23:55;10.10;99.90
54788;DHT22;59598;48.112;16.280;2022-12-07T13:26:36;9.40;99.90
54788;DHT22;59598;48.112;16.280;2022-12-07T13:29:26;9.00;99.90
54788;DHT22;59598;48.112;16.280;2022-12-07T13:32:04;8.50;99.90
54788;DHT22;59598;48.112;16.280;2022-12-07T13:34:47;8.30;99.90
54788;DHT22;59598;48.112;16.280;2022-12-07T13:37:32;7.90;99.90
54788;DHT22;59598;48.112;16.280;2022-12-07T13:40:25;7.70;99.90
54788;DHT22;59598;48.112;16.280;2022-12-07T13:43:05;7.70;99.90
54788;DHT22;59598;48.112;16.280;2022-12-07T13:45:44;7.50;99.90
54788;DHT22;59598;48.112;16.280;2022-12-07T13:48:31;7.20;99.90
54788;DHT22;59598;48.112;16.280;2022-12-07T13:51:26;7.00;99.90
54788;DHT22;59598;48.112;16.280;2022-12-07T13:54:12;6.90;99.90
54788;DHT22;59598;48.112;16.280;2022-12-07T13:56:50;6.80;99.90
54788;DHT22;59598;48.112;16.280;2022-12-07T13:59:28;6.60;99.90
54788;DHT22;59598;48.112;16.280;2022-12-07T14:02:22;6.60;99.90
54788;DHT22;59598;48.112;16.280;2022-12-07T14:05:22;6.50;99.90
54788;DHT22;59598;48.112;16.280;2022-12-07T14:08:05;6.30;99.90
54788;DHT22;59598;48.112;16.280;2022-12-07T14:10:55;6.10;99.90
54788;DHT22;59598;48.112;16.280;2022-12-07T14:13:56;6.20;99.90
54788;DHT22;59598;48.112;16.280;2022-12-07T14:16:42;6.00;99.90
54788;DHT22;59598;48.112;16.280;2022-12-07T14:19:41;6.10;99.90
54788;DHT22;59598;48.112;16.280;2022-12-07T14:22:31;6.00;99.90
54788;DHT22;59598;48.112;16.280;2022-12-07T14:27:56;5.90;99.90
54788;DHT22;59598;48.112;16.280;2022-12-07T14:30:31;5.80;99.90
54788;DHT22;59598;48.112;16.280;2022-12-07T14:33:05;5.70;99.90
54788;DHT22;59598;48.112;16.280;2022-12-07T14:35:39;5.60;99.90
54788;DHT22;59598;48.112;16.280;2022-12-07T14:38:11;5.50;99.90
54788;DHT22;59598;48.112;16.280;2022-12-07T14:40:43;5.40;99.90
54788;DHT22;59598;48.112;16.280;2022-12-07T14:43:16;5.30;99.90
54788;DHT22;59598;48.112;16.280;2022-12-07T14:45:48;5.20;99.90
54788;DHT22;59598;48.112;16.280;2022-12-07T14:48:21;5.20;99.90
54788;DHT22;59598;48.112;16.280;2022-12-07T14:50:55;5.10;99.90
54788;DHT22;59598;48.112;16.280;2022-12-07T14:53:31;5.10;99.90
54788;DHT22;59598;48.112;16.280;2022-12-07T14:56:09;5.20;99.90
54788;DHT22;59598;48.112;16.280;2022-12-07T14:58:43;5.10;99.90
54788;DHT22;59598;48.112;16.280;2022-12-07T15:01:20;5.20;99.90
54788;DHT22;59598;48.112;16.280;2022-12-07T15:03:52;5.20;99.90
54788;DHT22;59598;48.112;16.280;2022-12-07T15:06:30;5.10;99.90
54788;DHT22;59598;48.112;16.280;2022-12-07T15:09:05;5.20;99.90
54788;DHT22;59598;48.112;16.280;2022-12-07T15:11:39;5.20;99.90
54788;DHT22;59598;48.112;16.280;2022-12-07T15:14:15;5.20;99.90
54788;DHT22;59598;48.112;16.280;2022-12-07T15:16:57;5.10;99.90
54788;DHT22;59598;48.112;16.280;2022-12-07T15:19:30;5.10;99.90
54788;DHT22;59598;48.112;16.280;2022-12-07T15:22:01;5.00;99.90
54788;DHT22;59598;48.112;16.280;2022-12-07T15:24:34;4.90;99.90
54788;DHT22;59598;48.112;16.280;2022-12-07T15:27:08;4.80;99.90
54788;DHT22;59598;48.112;16.280;2022-12-07T15:29:40;4.70;99.90
54788;DHT22;59598;48.112;16.280;2022-12-07T15:32:12;4.60;99.90
54788;DHT22;59598;48.112;16.280;2022-12-07T15:34:53;4.60;99.90
54788;DHT22;59598;48.112;16.280;2022-12-07T15:37:31;4.50;99.90
54788;DHT22;59598;48.112;16.280;2022-12-07T15:40:06;4.40;99.90
54788;DHT22;59598;48.112;16.280;2022-12-07T15:42:47;4.40;99.90
54788;DHT22;59598;48.112;16.280;2022-12-07T15:45:21;4.30;99.90
54788;DHT22;59598;48.112;16.280;2022-12-07T15:48:01;4.20;99.90
54788;DHT22;59598;48.112;16.280;2022-12-07T15:50:35;4.10;99.90
54788;DHT22;59598;48.112;16.280;2022-12-07T15:53:13;4.10;99.90
54788;DHT22;59598;48.112;16.280;2022-12-07T15:56:05;4.00;99.90
54788;DHT22;59598;48.112;16.280;2022-12-07T15:58:44;3.90;99.90
54788;DHT22;59598;48.112;16.280;2022-12-07T16:01:19;3.90;99.90
54788;DHT22;59598;48.112;16.280;2022-12-07T16:03:53;3.80;99.90
54788;DHT22;59598;48.112;16.280;2022-12-07T16:06:25;3.80;99.90
54788;DHT22;59598;48.112;16.280;2022-12-07T16:08:59;3.70;99.90
54788;DHT22;59598;48.112;16.280;2022-12-07T16:11:34;3.70;99.90
54788;DHT22;59598;48.112;16.280;2022-12-07T16:14:05;3.60;99.90
54788;DHT22;59598;48.112;16.280;2022-12-07T16:16:40;3.60;99.90
54788;DHT22;59598;48.112;16.280;2022-12-07T16:19:15;3.50;99.90
54788;DHT22;59598;48.112;16.280;2022-12-07T16:21:54;3.60;99.90
54788;DHT22;59598;48.112;16.280;2022-12-07T16:24:28;3.60;99.90
54788;DHT22;59598;48.112;16.280;2022-12-07T16:27:05;3.60;99.90
54788;DHT22;59598;48.112;16.280;2022-12-07T16:29:36;3.60;99.90
54788;DHT22;59598;48.112;16.280;2022-12-07T16:32:08;3.50;99.90
54788;DHT22;59598;48.112;16.280;2022-12-07T16:34:40;3.50;99.90
54788;DHT22;59598;48.112;16.280;2022-12-07T16:37:14;3.40;99.90
54788;DHT22;59598;48.112;16.280;2022-12-07T16:39:48;3.40;99.90
54788;DHT22;59598;48.112;16.280;2022-12-07T16:42:22;3.50;99.90
54788;DHT22;59598;48.112;16.280;2022-12-07T16:44:58;3.50;99.90
54788;DHT22;59598;48.112;16.280;2022-12-07T16:47:38;3.40;99.90
54788;DHT22;59598;48.112;16.280;2022-12-07T16:50:13;3.50;99.90
54788;DHT22;59598;48.112;16.280;2022-12-07T16:52:49;3.40;99.90
54788;DHT22;59598;48.112;16.280;2022-12-07T16:55:36;3.40;99.90
54788;DHT22;59598;48.112;16.280;2022-12-07T16:58:14;3.30;99.90
54788;DHT22;59598;48.112;16.280;2022-12-07T17:00:47;3.20;99.90
54788;DHT22;59598;48.112;16.280;2022-12-07T17:03:25;3.20;99.90
54788;DHT22;59598;48.112;16.280;2022-12-07T17:05:58;3.10;99.90
54788;DHT22;59598;48.112;16.280;2022-12-07T17:08:33;3.10;99.90
54788;DHT22;59598;48.112;16.280;2022-12-07T17:11:14;3.10;99.90
54788;DHT22;59598;48.112;16.280;2022-12-07T17:13:54;3.10;99.90
54788;DHT22;59598;48.112;16.280;2022-12-07T17:16:45;3.10;99.90
54788;DHT22;59598;48.112;16.280;2022-12-07T17:19:21;3.00;99.90
54788;DHT22;59598;48.112;16.280;2022-12-07T17:21:53;3.10;99.90
54788;DHT22;59598;48.112;16.280;2022-12-07T17:24:27;3.20;99.90
54788;DHT22;59598;48.112;16.280;2022-12-07T17:27:01;3.30;99.90
54788;DHT22;59598;48.112;16.280;2022-12-07T17:29:34;3.30;99.90
54788;DHT22;59598;48.112;16.280;2022-12-07T17:32:06;3.30;99.90
54788;DHT22;59598;48.112;16.280;2022-12-07T17:34:37;3.40;99.90
54788;DHT22;59598;48.112;16.280;2022-12-07T17:37:09;3.40;99.90
54788;DHT22;59598;48.112;16.280;2022-12-07T17:39:43;3.50;99.90
54788;DHT22;59598;48.112;16.280;2022-12-07T17:42:17;3.60;99.90
54788;DHT22;59598;48.112;16.280;2022-12-07T17:45:13;3.60;99.90
54788;DHT22;59598;48.112;16.280;2022-12-07T17:47:53;3.60;99.90
54788;DHT22;59598;48.112;16.280;2022-12-07T17:50:26;3.60;99.90
54788;DHT22;59598;48.112;16.280;2022-12-07T17:53:19;3.70;99.90
54788;DHT22;59598;48.112;16.280;2022-12-07T17:55:56;3.70;99.90
54788;DHT22;59598;48.112;16.280;2022-12-07T17:58:33;3.70;99.90
54788;DHT22;59598;48.112;16.280;2022-12-07T18:01:11;3.70;99.90
54788;DHT22;59598;48.112;16.280;2022-12-07T18:03:43;3.70;99.90
54788;DHT22;59598;48.112;16.280;2022-12-07T18:06:26;3.70;99.90
54788;DHT22;59598;48.112;16.280;2022-12-07T18:08:59;3.70;99.90
54788;DHT22;59598;48.112;16.280;2022-12-07T18:11:32;3.70;99.90
54788;DHT22;59598;48.112;16.280;2022-12-07T18:14:05;3.70;99.90
54788;DHT22;59598;48.112;16.280;2022-12-07T18:16:42;3.70;99.90
54788;DHT22;59598;48.112;16.280;2022-12-07T18:19:16;3.60;99.90
54788;DHT22;59598;48.112;16.280;2022-12-07T18:21:51;3.60;99.90
54788;DHT22;59598;48.112;16.280;2022-12-07T18:24:22;3.60;99.90
54788;DHT22;59598;48.112;16.280;2022-12-07T18:26:56;3.60;99.90
54788;DHT22;59598;48.112;16.280;2022-12-07T18:29:35;3.70;99.90
54788;DHT22;59598;48.112;16.280;2022-12-07T18:32:06;3.70;99.90
54788;DHT22;59598;48.112;16.280;2022-12-07T18:34:38;3.80;99.90
54788;DHT22;59598;48.112;16.280;2022-12-07T18:37:15;3.80;99.90